createdAt,value
2017-08-31T00:00:35.196Z,0
2017-08-31T00:01:15.798Z,0
2017-08-31T00:01:56.370Z,0
2017-08-31T00:02:36.934Z,0
2017-08-31T00:03:17.509Z,0
2017-08-31T00:03:58.077Z,0
2017-08-31T00:04:38.679Z,0
2017-08-31T00:05:19.261Z,0
2017-08-31T00:05:59.846Z,0
2017-08-31T00:06:40.416Z,0
2017-08-31T00:07:20.998Z,0
2017-08-31T00:08:01.565Z,0
2017-08-31T00:08:42.179Z,0
2017-08-31T00:09:22.773Z,0
2017-08-31T00:10:03.341Z,0
2017-08-31T00:10:43.914Z,0
2017-08-31T00:11:24.489Z,0
2017-08-31T00:12:05.066Z,0
2017-08-31T00:12:45.646Z,0
2017-08-31T00:13:26.218Z,0
2017-08-31T00:14:06.788Z,0
2017-08-31T00:14:47.382Z,0
2017-08-31T00:15:27.958Z,0
2017-08-31T00:16:08.537Z,0
2017-08-31T00:16:49.133Z,0
2017-08-31T00:17:29.712Z,0
2017-08-31T00:18:10.293Z,0
2017-08-31T00:18:50.872Z,0
2017-08-31T00:19:31.459Z,0
2017-08-31T00:20:12.034Z,0
2017-08-31T00:20:52.615Z,0
2017-08-31T00:21:33.192Z,0
2017-08-31T00:22:13.767Z,0
2017-08-31T00:22:54.341Z,0
2017-08-31T00:23:34.915Z,0
2017-08-31T00:24:15.493Z,0
2017-08-31T00:24:56.056Z,0
2017-08-31T00:25:36.627Z,0
2017-08-31T00:26:17.212Z,0
2017-08-31T00:26:57.814Z,0
2017-08-31T00:27:38.388Z,0
2017-08-31T00:28:18.969Z,0
2017-08-31T00:28:59.563Z,0
2017-08-31T00:29:40.140Z,0
2017-08-31T00:30:20.710Z,0
2017-08-31T00:31:01.327Z,0
2017-08-31T00:31:41.896Z,0
2017-08-31T00:32:22.448Z,0
2017-08-31T00:33:03.035Z,0
2017-08-31T00:33:43.610Z,0
2017-08-31T00:34:24.186Z,0
2017-08-31T00:35:04.773Z,0
2017-08-31T00:35:45.354Z,0
2017-08-31T00:36:25.955Z,0
2017-08-31T00:37:06.542Z,0
2017-08-31T00:37:47.142Z,0
2017-08-31T00:38:27.717Z,0
2017-08-31T00:39:08.295Z,0
2017-08-31T00:39:48.872Z,0
2017-08-31T00:40:29.440Z,0
2017-08-31T00:41:10.025Z,0
2017-08-31T00:41:50.610Z,0
2017-08-31T00:42:31.197Z,0
2017-08-31T00:43:11.765Z,0
2017-08-31T00:43:52.344Z,0
2017-08-31T00:44:32.919Z,0
2017-08-31T00:45:13.491Z,0
2017-08-31T00:45:54.057Z,0
2017-08-31T00:46:34.648Z,0
2017-08-31T00:47:15.267Z,0
2017-08-31T00:47:55.857Z,0
2017-08-31T00:48:36.443Z,0
2017-08-31T00:49:17.015Z,0
2017-08-31T00:49:57.590Z,0
2017-08-31T00:50:38.160Z,0
2017-08-31T00:51:18.730Z,0
2017-08-31T00:51:59.303Z,0
2017-08-31T00:52:39.889Z,0
2017-08-31T00:53:20.467Z,0
2017-08-31T00:54:01.041Z,0
2017-08-31T00:54:41.605Z,0
2017-08-31T00:55:22.171Z,0
2017-08-31T00:56:02.762Z,0
2017-08-31T00:56:43.350Z,0
2017-08-31T00:57:23.914Z,0
2017-08-31T00:58:04.483Z,0
2017-08-31T00:58:45.054Z,0
2017-08-31T00:59:25.651Z,0
2017-08-31T01:00:06.240Z,0
2017-08-31T01:00:46.826Z,0
2017-08-31T01:01:27.419Z,0
2017-08-31T01:02:07.993Z,0
2017-08-31T01:02:48.568Z,0
2017-08-31T01:03:29.153Z,0
2017-08-31T01:04:09.721Z,0
2017-08-31T01:04:50.294Z,0
2017-08-31T01:05:30.868Z,0
2017-08-31T01:06:11.451Z,0
2017-08-31T01:06:52.042Z,0
2017-08-31T01:07:32.626Z,0
2017-08-31T01:08:13.210Z,0
2017-08-31T01:08:53.795Z,0
2017-08-31T01:09:34.361Z,0
2017-08-31T01:10:14.950Z,0
2017-08-31T01:10:55.544Z,0
2017-08-31T01:11:36.151Z,0
2017-08-31T01:12:16.716Z,0
2017-08-31T01:12:57.297Z,0
2017-08-31T01:13:37.886Z,0
2017-08-31T01:14:18.445Z,0
2017-08-31T01:14:59.020Z,0
2017-08-31T01:15:39.591Z,0
2017-08-31T01:16:20.198Z,0
2017-08-31T01:17:00.777Z,0
2017-08-31T01:17:41.359Z,0
2017-08-31T01:18:21.930Z,0
2017-08-31T01:19:02.519Z,0
2017-08-31T01:19:43.097Z,0
2017-08-31T01:20:23.691Z,0
2017-08-31T01:21:04.264Z,0
2017-08-31T01:21:44.848Z,0
2017-08-31T01:22:25.420Z,0
2017-08-31T01:23:05.998Z,0
2017-08-31T01:23:46.571Z,0
2017-08-31T01:24:27.155Z,0
2017-08-31T01:25:07.729Z,0
2017-08-31T01:25:48.320Z,0
2017-08-31T01:26:28.891Z,0
2017-08-31T01:27:09.454Z,0
2017-08-31T01:27:50.029Z,0
2017-08-31T01:28:30.640Z,0
2017-08-31T01:29:11.222Z,0
2017-08-31T01:29:51.800Z,0
2017-08-31T01:30:32.357Z,0
2017-08-31T01:31:12.933Z,0
2017-08-31T01:31:53.526Z,0
2017-08-31T01:32:34.090Z,0
2017-08-31T01:33:14.671Z,0
2017-08-31T01:33:55.253Z,0
2017-08-31T01:34:35.831Z,0
2017-08-31T01:35:16.395Z,0
2017-08-31T01:35:56.971Z,0
2017-08-31T01:36:37.540Z,0
2017-08-31T01:37:18.139Z,0
2017-08-31T01:37:58.741Z,0
2017-08-31T01:38:39.315Z,0
2017-08-31T01:39:19.889Z,0
2017-08-31T01:40:00.471Z,0
2017-08-31T01:40:41.042Z,0
2017-08-31T01:41:21.628Z,0
2017-08-31T01:42:02.263Z,0
2017-08-31T01:42:42.805Z,0
2017-08-31T01:43:23.389Z,0
2017-08-31T01:44:03.951Z,0
2017-08-31T01:44:44.530Z,0
2017-08-31T01:45:25.124Z,0
2017-08-31T01:46:05.684Z,0
2017-08-31T01:46:46.295Z,0
2017-08-31T01:47:26.885Z,0
2017-08-31T01:48:07.442Z,0
2017-08-31T01:48:48.016Z,0
2017-08-31T01:49:28.582Z,0
2017-08-31T01:50:09.193Z,0
2017-08-31T01:50:49.765Z,0
2017-08-31T01:51:30.342Z,0
2017-08-31T01:52:10.970Z,0
2017-08-31T01:52:51.537Z,0
2017-08-31T01:53:32.119Z,0
2017-08-31T01:54:12.702Z,0
2017-08-31T01:54:53.336Z,0
2017-08-31T01:55:33.912Z,0
2017-08-31T01:56:14.502Z,0
2017-08-31T01:56:55.069Z,0
2017-08-31T01:57:35.644Z,0
2017-08-31T01:58:16.226Z,0
2017-08-31T01:58:56.801Z,0
2017-08-31T01:59:37.376Z,0
2017-08-31T02:00:17.963Z,0
2017-08-31T02:00:58.538Z,0
2017-08-31T02:01:39.147Z,0
2017-08-31T02:02:19.730Z,0
2017-08-31T02:03:00.326Z,0
2017-08-31T02:03:40.911Z,0
2017-08-31T02:04:21.514Z,0
2017-08-31T02:05:02.089Z,0
2017-08-31T02:05:42.668Z,0
2017-08-31T02:06:23.234Z,0
2017-08-31T02:07:03.804Z,0
2017-08-31T02:07:44.417Z,0
2017-08-31T02:08:24.991Z,0
2017-08-31T02:09:05.565Z,0
2017-08-31T02:09:46.132Z,0
2017-08-31T02:10:26.746Z,0
2017-08-31T02:11:07.343Z,0
2017-08-31T02:11:47.921Z,0
2017-08-31T02:12:28.492Z,0
2017-08-31T02:13:09.060Z,0
2017-08-31T02:13:49.628Z,0
2017-08-31T02:14:30.193Z,0
2017-08-31T02:15:10.769Z,0
2017-08-31T02:15:51.354Z,0
2017-08-31T02:16:31.914Z,0
2017-08-31T02:17:12.486Z,0
2017-08-31T02:17:53.057Z,0
2017-08-31T02:18:33.625Z,0
2017-08-31T02:19:14.194Z,0
2017-08-31T02:19:54.771Z,0
2017-08-31T02:20:35.382Z,0
2017-08-31T02:21:15.985Z,0
2017-08-31T02:21:56.577Z,0
2017-08-31T02:22:37.140Z,0
2017-08-31T02:23:17.710Z,0
2017-08-31T02:23:58.321Z,0
2017-08-31T02:24:38.898Z,0
2017-08-31T02:25:19.477Z,0
2017-08-31T02:26:00.089Z,0
2017-08-31T02:26:40.692Z,0
2017-08-31T02:27:21.267Z,0
2017-08-31T02:28:01.867Z,0
2017-08-31T02:28:42.475Z,0
2017-08-31T02:29:23.022Z,0
2017-08-31T02:30:03.609Z,0
2017-08-31T02:30:44.189Z,0
2017-08-31T02:31:24.765Z,0
2017-08-31T02:32:05.341Z,0
2017-08-31T02:32:45.931Z,0
2017-08-31T02:33:26.506Z,0
2017-08-31T02:34:07.096Z,0
2017-08-31T02:34:47.677Z,0
2017-08-31T02:35:28.253Z,0
2017-08-31T02:36:08.829Z,0
2017-08-31T02:36:49.434Z,0
2017-08-31T02:37:30.009Z,0
2017-08-31T02:38:10.591Z,0
2017-08-31T02:38:51.177Z,0
2017-08-31T02:39:31.767Z,0
2017-08-31T02:40:12.382Z,0
2017-08-31T02:40:52.939Z,0
2017-08-31T02:41:33.505Z,0
2017-08-31T02:42:14.071Z,0
2017-08-31T02:42:54.652Z,0
2017-08-31T02:43:35.241Z,0
2017-08-31T02:44:15.800Z,0
2017-08-31T02:44:56.386Z,0
2017-08-31T02:45:36.967Z,0
2017-08-31T02:46:17.580Z,0
2017-08-31T02:46:58.178Z,0
2017-08-31T02:47:38.766Z,0
2017-08-31T02:48:19.478Z,0
2017-08-31T02:49:00.052Z,0
2017-08-31T02:49:40.628Z,0
2017-08-31T02:50:21.200Z,0
2017-08-31T02:51:01.764Z,0
2017-08-31T02:51:42.386Z,0
2017-08-31T02:52:22.975Z,0
2017-08-31T02:53:03.566Z,0
2017-08-31T02:53:44.130Z,0
2017-08-31T02:54:24.711Z,0
2017-08-31T02:55:05.346Z,0
2017-08-31T02:55:45.940Z,0
2017-08-31T02:56:26.538Z,0
2017-08-31T02:57:07.120Z,0
2017-08-31T02:57:47.774Z,0
2017-08-31T02:58:28.368Z,0
2017-08-31T02:59:08.959Z,0
2017-08-31T02:59:49.537Z,0
2017-08-31T03:00:30.135Z,0
2017-08-31T03:01:10.708Z,0
2017-08-31T03:01:51.274Z,0
2017-08-31T03:02:31.849Z,0
2017-08-31T03:03:12.434Z,0
2017-08-31T03:03:52.990Z,0
2017-08-31T03:04:33.563Z,0
2017-08-31T03:05:14.130Z,0
2017-08-31T03:05:54.704Z,0
2017-08-31T03:06:35.274Z,0
2017-08-31T03:07:15.832Z,0
2017-08-31T03:07:56.412Z,0
2017-08-31T03:08:36.993Z,0
2017-08-31T03:09:17.568Z,0
2017-08-31T03:09:58.127Z,0
2017-08-31T03:10:38.706Z,0
2017-08-31T03:11:19.289Z,0
2017-08-31T03:11:59.888Z,0
2017-08-31T03:12:40.461Z,0
2017-08-31T03:13:21.038Z,0
2017-08-31T03:14:01.631Z,0
2017-08-31T03:14:42.226Z,0
2017-08-31T03:15:22.818Z,0
2017-08-31T03:16:03.407Z,0
2017-08-31T03:16:43.973Z,0
2017-08-31T03:17:24.562Z,0
2017-08-31T03:18:05.131Z,0
2017-08-31T03:18:45.703Z,0
2017-08-31T03:19:26.369Z,0
2017-08-31T03:20:06.914Z,0
2017-08-31T03:20:47.505Z,0
2017-08-31T03:21:28.109Z,0
2017-08-31T03:22:08.728Z,0
2017-08-31T03:22:49.318Z,0
2017-08-31T03:23:29.902Z,0
2017-08-31T03:24:10.470Z,0
2017-08-31T03:24:51.039Z,0
2017-08-31T03:25:31.626Z,0
2017-08-31T03:26:12.196Z,0
2017-08-31T03:26:52.764Z,0
2017-08-31T03:27:33.335Z,0
2017-08-31T03:28:13.911Z,0
2017-08-31T03:28:54.477Z,0
2017-08-31T03:29:35.091Z,0
2017-08-31T03:30:15.673Z,0
2017-08-31T03:30:56.259Z,0
2017-08-31T03:31:36.846Z,0
2017-08-31T03:32:17.437Z,0
2017-08-31T03:32:58.036Z,0
2017-08-31T03:33:38.601Z,0
2017-08-31T03:34:19.213Z,0
2017-08-31T03:34:59.802Z,0
2017-08-31T03:35:40.420Z,0
2017-08-31T03:36:21.033Z,0
2017-08-31T03:37:01.638Z,0
2017-08-31T03:37:42.211Z,0
2017-08-31T03:38:22.803Z,0
2017-08-31T03:39:03.377Z,0
2017-08-31T03:39:43.965Z,0
2017-08-31T03:40:24.564Z,0
2017-08-31T03:41:05.198Z,0
2017-08-31T03:41:45.786Z,0
2017-08-31T03:42:26.346Z,0
2017-08-31T03:43:06.914Z,0
2017-08-31T03:43:47.488Z,0
2017-08-31T03:44:28.084Z,0
2017-08-31T03:45:08.703Z,0
2017-08-31T03:45:49.289Z,0
2017-08-31T03:46:29.870Z,0
2017-08-31T03:47:10.488Z,0
2017-08-31T03:47:51.080Z,0
2017-08-31T03:48:31.685Z,0
2017-08-31T03:49:12.268Z,0
2017-08-31T03:49:52.837Z,0
2017-08-31T03:50:33.433Z,0
2017-08-31T03:51:14.015Z,0
2017-08-31T03:51:54.592Z,0
2017-08-31T03:52:35.227Z,0
2017-08-31T03:53:15.821Z,0
2017-08-31T03:53:56.384Z,0
2017-08-31T03:54:36.963Z,0
2017-08-31T03:55:17.526Z,0
2017-08-31T03:55:58.105Z,0
2017-08-31T03:56:38.672Z,0
2017-08-31T03:57:19.249Z,0
2017-08-31T03:57:59.815Z,0
2017-08-31T03:58:40.389Z,0
2017-08-31T03:59:20.955Z,0
2017-08-31T04:00:01.584Z,0
2017-08-31T04:00:42.159Z,0
2017-08-31T04:01:22.741Z,0
2017-08-31T04:02:03.332Z,0
2017-08-31T04:02:43.919Z,0
2017-08-31T04:03:24.486Z,0
2017-08-31T04:04:05.063Z,0
2017-08-31T04:04:45.641Z,0
2017-08-31T04:05:26.209Z,0
2017-08-31T04:06:06.805Z,0
2017-08-31T04:06:47.360Z,0
2017-08-31T04:07:27.918Z,0
2017-08-31T04:08:08.502Z,0
2017-08-31T04:08:49.071Z,0
2017-08-31T04:09:29.673Z,0
2017-08-31T04:10:10.304Z,0
2017-08-31T04:10:50.865Z,0
2017-08-31T04:11:31.464Z,0
2017-08-31T04:12:12.048Z,0
2017-08-31T04:12:52.611Z,0
2017-08-31T04:13:33.197Z,0
2017-08-31T04:14:13.791Z,0
2017-08-31T04:14:54.387Z,0
2017-08-31T04:15:34.970Z,0
2017-08-31T04:16:15.541Z,0
2017-08-31T04:16:56.128Z,0
2017-08-31T04:17:36.694Z,0
2017-08-31T04:18:17.275Z,0
2017-08-31T04:18:57.845Z,0
2017-08-31T04:19:38.468Z,0
2017-08-31T04:20:19.069Z,0
2017-08-31T04:20:59.641Z,0
2017-08-31T04:21:40.224Z,0
2017-08-31T04:22:20.792Z,0
2017-08-31T04:23:01.360Z,0
2017-08-31T04:23:41.928Z,0
2017-08-31T04:24:22.505Z,0
2017-08-31T04:25:03.108Z,0
2017-08-31T04:25:43.707Z,0
2017-08-31T04:26:24.412Z,0
2017-08-31T04:27:04.856Z,0
2017-08-31T04:27:45.463Z,0
2017-08-31T04:28:26.104Z,0
2017-08-31T04:29:06.678Z,0
2017-08-31T04:29:47.258Z,0
2017-08-31T04:30:27.836Z,0
2017-08-31T04:31:08.404Z,0
2017-08-31T04:31:48.968Z,0
2017-08-31T04:32:29.529Z,0
2017-08-31T04:33:10.116Z,0
2017-08-31T04:33:50.686Z,0
2017-08-31T04:34:31.286Z,0
2017-08-31T04:35:11.844Z,0
2017-08-31T04:35:52.429Z,0
2017-08-31T04:36:33.041Z,0
2017-08-31T04:37:13.629Z,0
2017-08-31T04:37:54.210Z,0
2017-08-31T04:38:34.822Z,0
2017-08-31T04:39:15.373Z,0
2017-08-31T04:39:55.971Z,0
2017-08-31T04:40:36.545Z,5
2017-08-31T04:41:17.135Z,5
2017-08-31T04:41:57.730Z,5
2017-08-31T04:42:38.299Z,5
2017-08-31T04:43:18.887Z,5
2017-08-31T04:43:59.465Z,5
2017-08-31T04:44:40.046Z,5
2017-08-31T04:45:20.630Z,5
2017-08-31T04:46:01.205Z,5
2017-08-31T04:46:41.774Z,5
2017-08-31T04:47:22.355Z,5
2017-08-31T04:48:02.940Z,10
2017-08-31T04:48:43.511Z,10
2017-08-31T04:49:24.106Z,10
2017-08-31T04:50:04.676Z,10
2017-08-31T04:50:45.286Z,10
2017-08-31T04:51:25.853Z,10
2017-08-31T04:52:06.435Z,15
2017-08-31T04:52:47.026Z,15
2017-08-31T04:53:27.607Z,15
2017-08-31T04:54:08.192Z,15
2017-08-31T04:54:48.804Z,15
2017-08-31T04:55:29.385Z,15
2017-08-31T04:56:09.964Z,15
2017-08-31T04:56:50.536Z,20
2017-08-31T04:57:31.104Z,20
2017-08-31T04:58:11.669Z,20
2017-08-31T04:58:52.245Z,20
2017-08-31T04:59:32.841Z,20
2017-08-31T05:00:13.411Z,20
2017-08-31T05:00:53.989Z,20
2017-08-31T05:01:34.562Z,20
2017-08-31T05:02:15.140Z,20
2017-08-31T05:02:55.718Z,25
2017-08-31T05:03:36.308Z,25
2017-08-31T05:04:16.887Z,25
2017-08-31T05:04:57.457Z,25
2017-08-31T05:05:38.031Z,25
2017-08-31T05:06:18.627Z,25
2017-08-31T05:06:59.191Z,30
2017-08-31T05:07:39.818Z,30
2017-08-31T05:08:20.420Z,30
2017-08-31T05:09:01.005Z,35
2017-08-31T05:09:41.579Z,35
2017-08-31T05:10:22.151Z,35
2017-08-31T05:11:02.726Z,40
2017-08-31T05:11:43.340Z,40
2017-08-31T05:12:23.909Z,40
2017-08-31T05:13:04.471Z,45
2017-08-31T05:13:45.046Z,45
2017-08-31T05:14:25.636Z,50
2017-08-31T05:15:06.222Z,50
2017-08-31T05:15:46.800Z,50
2017-08-31T05:16:27.385Z,55
2017-08-31T05:17:07.980Z,55
2017-08-31T05:17:48.559Z,55
2017-08-31T05:18:29.159Z,55
2017-08-31T05:19:09.743Z,55
2017-08-31T05:19:50.318Z,55
2017-08-31T05:20:30.900Z,55
2017-08-31T05:21:11.472Z,55
2017-08-31T05:21:52.040Z,55
2017-08-31T05:22:32.610Z,55
2017-08-31T05:23:13.195Z,55
2017-08-31T05:23:53.779Z,55
2017-08-31T05:24:34.366Z,55
2017-08-31T05:25:14.945Z,55
2017-08-31T05:25:55.524Z,55
2017-08-31T05:26:36.095Z,55
2017-08-31T05:27:16.669Z,55
2017-08-31T05:27:57.290Z,60
2017-08-31T05:28:37.853Z,60
2017-08-31T05:29:18.429Z,60
2017-08-31T05:29:59.015Z,60
2017-08-31T05:30:39.604Z,65
2017-08-31T05:31:20.181Z,65
2017-08-31T05:32:00.747Z,65
2017-08-31T05:32:41.375Z,65
2017-08-31T05:33:21.935Z,65
2017-08-31T05:34:02.528Z,70
2017-08-31T05:34:43.118Z,70
2017-08-31T05:35:23.686Z,70
2017-08-31T05:36:04.276Z,70
2017-08-31T05:36:44.847Z,70
2017-08-31T05:37:25.465Z,70
2017-08-31T05:38:06.030Z,75
2017-08-31T05:38:46.610Z,75
2017-08-31T05:39:27.173Z,75
2017-08-31T05:40:07.744Z,75
2017-08-31T05:40:48.335Z,80
2017-08-31T05:41:28.906Z,80
2017-08-31T05:42:09.503Z,80
2017-08-31T05:42:50.071Z,80
2017-08-31T05:43:30.661Z,85
2017-08-31T05:44:11.265Z,85
2017-08-31T05:44:51.911Z,85
2017-08-31T05:45:32.473Z,85
2017-08-31T05:46:13.054Z,90
2017-08-31T05:46:53.624Z,90
2017-08-31T05:47:34.222Z,95
2017-08-31T05:48:14.806Z,95
2017-08-31T05:48:55.409Z,100
2017-08-31T05:49:35.971Z,95
2017-08-31T05:50:16.547Z,100
2017-08-31T05:50:57.128Z,100
2017-08-31T05:51:37.710Z,105
2017-08-31T05:52:18.278Z,105
2017-08-31T05:52:58.853Z,110
2017-08-31T05:53:39.438Z,115
2017-08-31T05:54:20.010Z,115
2017-08-31T05:55:00.577Z,125
2017-08-31T05:55:41.141Z,130
2017-08-31T05:56:21.721Z,130
2017-08-31T05:57:02.286Z,130
2017-08-31T05:57:42.881Z,135
2017-08-31T05:58:23.453Z,130
2017-08-31T05:59:04.048Z,130
2017-08-31T05:59:44.621Z,130
2017-08-31T06:00:25.191Z,135
2017-08-31T06:01:05.762Z,140
2017-08-31T06:01:46.353Z,140
2017-08-31T06:02:26.950Z,135
2017-08-31T06:03:07.523Z,135
2017-08-31T06:03:48.139Z,130
2017-08-31T06:04:28.713Z,125
2017-08-31T06:05:09.318Z,120
2017-08-31T06:05:49.894Z,120
2017-08-31T06:06:30.484Z,120
2017-08-31T06:07:11.070Z,125
2017-08-31T06:07:51.659Z,130
2017-08-31T06:08:32.240Z,140
2017-08-31T06:09:12.827Z,145
2017-08-31T06:09:53.398Z,155
2017-08-31T06:10:33.968Z,160
2017-08-31T06:11:14.543Z,165
2017-08-31T06:11:55.116Z,170
2017-08-31T06:12:35.687Z,175
2017-08-31T06:13:16.269Z,175
2017-08-31T06:13:56.847Z,180
2017-08-31T06:14:37.444Z,180
2017-08-31T06:15:18.046Z,185
2017-08-31T06:15:58.627Z,185
2017-08-31T06:16:39.226Z,185
2017-08-31T06:17:19.812Z,190
2017-08-31T06:18:00.427Z,190
2017-08-31T06:18:41.010Z,195
2017-08-31T06:19:21.572Z,195
2017-08-31T06:20:02.165Z,200
2017-08-31T06:20:42.756Z,200
2017-08-31T06:21:23.331Z,200
2017-08-31T06:22:03.899Z,205
2017-08-31T06:22:44.473Z,205
2017-08-31T06:23:25.036Z,210
2017-08-31T06:24:05.627Z,215
2017-08-31T06:24:46.199Z,215
2017-08-31T06:25:26.820Z,215
2017-08-31T06:26:07.394Z,220
2017-08-31T06:26:47.970Z,220
2017-08-31T06:27:28.545Z,225
2017-08-31T06:28:09.203Z,260
2017-08-31T06:28:49.713Z,320
2017-08-31T06:29:30.309Z,375
2017-08-31T06:30:10.951Z,460
2017-08-31T06:30:51.532Z,670
2017-08-31T06:31:32.146Z,760
2017-08-31T06:32:12.714Z,645
2017-08-31T06:32:53.278Z,760
2017-08-31T06:33:33.907Z,610
2017-08-31T06:34:14.531Z,480
2017-08-31T06:34:55.091Z,370
2017-08-31T06:35:35.674Z,345
2017-08-31T06:36:16.237Z,370
2017-08-31T06:36:56.824Z,340
2017-08-31T06:37:37.427Z,490
2017-08-31T06:38:18.010Z,630
2017-08-31T06:38:58.585Z,695
2017-08-31T06:39:39.195Z,685
2017-08-31T06:40:19.795Z,685
2017-08-31T06:41:00.428Z,545
2017-08-31T06:41:41.000Z,515
2017-08-31T06:42:21.630Z,615
2017-08-31T06:43:02.194Z,805
2017-08-31T06:43:42.783Z,785
2017-08-31T06:44:23.356Z,695
2017-08-31T06:45:03.947Z,575
2017-08-31T06:45:44.533Z,490
2017-08-31T06:46:25.109Z,435
2017-08-31T06:47:05.711Z,355
2017-08-31T06:47:46.302Z,395
2017-08-31T06:48:26.878Z,445
2017-08-31T06:49:07.453Z,485
2017-08-31T06:49:48.030Z,480
2017-08-31T06:50:28.638Z,340
2017-08-31T06:51:09.230Z,425
2017-08-31T06:51:49.820Z,690
2017-08-31T06:52:30.394Z,775
2017-08-31T06:53:11.004Z,770
2017-08-31T06:53:51.597Z,770
2017-08-31T06:54:32.192Z,780
2017-08-31T06:55:12.795Z,690
2017-08-31T06:55:53.376Z,680
2017-08-31T06:56:33.963Z,1245
2017-08-31T06:57:14.523Z,1240
2017-08-31T06:57:55.103Z,1260
2017-08-31T06:58:35.676Z,1255
2017-08-31T06:59:16.266Z,1180
2017-08-31T06:59:56.837Z,1150
2017-08-31T07:00:37.412Z,1085
2017-08-31T07:01:17.997Z,1100
2017-08-31T07:01:58.579Z,955
2017-08-31T07:02:39.146Z,625
2017-08-31T07:03:19.724Z,640
2017-08-31T07:04:00.311Z,765
2017-08-31T07:04:40.890Z,1125
2017-08-31T07:05:21.470Z,1315
2017-08-31T07:06:02.046Z,1270
2017-08-31T07:06:42.640Z,1165
2017-08-31T07:07:23.219Z,1115
2017-08-31T07:08:03.832Z,1150
2017-08-31T07:08:44.417Z,1060
2017-08-31T07:09:24.984Z,1115
2017-08-31T07:10:05.588Z,1170
2017-08-31T07:10:46.175Z,1130
2017-08-31T07:11:26.765Z,1135
2017-08-31T07:12:07.352Z,1230
2017-08-31T07:12:47.936Z,1255
2017-08-31T07:13:28.503Z,1240
2017-08-31T07:14:09.080Z,1250
2017-08-31T07:14:49.661Z,1295
2017-08-31T07:15:30.235Z,1245
2017-08-31T07:16:10.824Z,1260
2017-08-31T07:16:51.413Z,1295
2017-08-31T07:17:32.014Z,1300
2017-08-31T07:18:12.586Z,1215
2017-08-31T07:18:53.145Z,1205
2017-08-31T07:19:33.738Z,1230
2017-08-31T07:20:14.312Z,1305
2017-08-31T07:20:54.904Z,1280
2017-08-31T07:21:35.508Z,1235
2017-08-31T07:22:16.091Z,1205
2017-08-31T07:22:56.680Z,1240
2017-08-31T07:23:37.294Z,1250
2017-08-31T07:24:17.880Z,1280
2017-08-31T07:24:58.473Z,1270
2017-08-31T07:25:39.051Z,1345
2017-08-31T07:26:19.619Z,1330
2017-08-31T07:27:00.185Z,1280
2017-08-31T07:27:40.795Z,1265
2017-08-31T07:28:21.398Z,1260
2017-08-31T07:29:01.984Z,1275
2017-08-31T07:29:42.584Z,1225
2017-08-31T07:30:23.168Z,1170
2017-08-31T07:31:03.735Z,1190
2017-08-31T07:31:44.322Z,1230
2017-08-31T07:32:24.914Z,1175
2017-08-31T07:33:05.485Z,1165
2017-08-31T07:33:46.099Z,1155
2017-08-31T07:34:26.701Z,1175
2017-08-31T07:35:07.289Z,1180
2017-08-31T07:35:47.868Z,1165
2017-08-31T07:36:28.443Z,1135
2017-08-31T07:37:09.037Z,1100
2017-08-31T07:37:49.614Z,1000
2017-08-31T07:38:30.188Z,965
2017-08-31T07:39:10.794Z,935
2017-08-31T07:39:51.375Z,920
2017-08-31T07:40:32.009Z,855
2017-08-31T07:41:12.587Z,810
2017-08-31T07:41:53.177Z,795
2017-08-31T07:42:33.756Z,800
2017-08-31T07:43:14.353Z,945
2017-08-31T07:43:54.929Z,1050
2017-08-31T07:44:35.507Z,1040
2017-08-31T07:45:16.130Z,965
2017-08-31T07:45:56.721Z,915
2017-08-31T07:46:37.340Z,830
2017-08-31T07:47:17.924Z,800
2017-08-31T07:47:58.513Z,810
2017-08-31T07:48:39.089Z,810
2017-08-31T07:49:19.681Z,765
2017-08-31T07:50:00.272Z,730
2017-08-31T07:50:40.885Z,725
2017-08-31T07:51:21.469Z,770
2017-08-31T07:52:02.059Z,760
2017-08-31T07:52:42.640Z,760
2017-08-31T07:53:23.235Z,780
2017-08-31T07:54:03.852Z,745
2017-08-31T07:54:44.434Z,690
2017-08-31T07:55:25.005Z,685
2017-08-31T07:56:05.628Z,715
2017-08-31T07:56:46.213Z,710
2017-08-31T07:57:26.805Z,710
2017-08-31T07:58:07.403Z,710
2017-08-31T07:58:48.005Z,750
2017-08-31T07:59:28.596Z,755
2017-08-31T08:00:09.168Z,735
2017-08-31T08:00:49.774Z,735
2017-08-31T08:01:30.372Z,715
2017-08-31T08:02:10.942Z,720
2017-08-31T08:02:51.514Z,750
2017-08-31T08:03:32.110Z,770
2017-08-31T08:04:12.697Z,740
2017-08-31T08:04:53.276Z,730
2017-08-31T08:05:33.867Z,705
2017-08-31T08:06:14.462Z,700
2017-08-31T08:06:55.033Z,695
2017-08-31T08:07:35.627Z,690
2017-08-31T08:08:16.246Z,675
2017-08-31T08:08:56.831Z,650
2017-08-31T08:09:37.423Z,595
2017-08-31T08:10:18.016Z,530
2017-08-31T08:10:58.610Z,470
2017-08-31T08:11:39.257Z,455
2017-08-31T08:12:19.905Z,450
2017-08-31T08:13:00.526Z,445
2017-08-31T08:13:41.169Z,450
2017-08-31T08:14:21.764Z,440
2017-08-31T08:15:02.349Z,435
2017-08-31T08:15:42.926Z,430
2017-08-31T08:16:23.526Z,430
2017-08-31T08:17:04.103Z,425
2017-08-31T08:17:44.704Z,415
2017-08-31T08:18:25.286Z,415
2017-08-31T08:19:05.855Z,410
2017-08-31T08:19:46.450Z,405
2017-08-31T08:20:27.071Z,405
2017-08-31T08:21:07.643Z,400
2017-08-31T08:21:48.216Z,390
2017-08-31T08:22:28.806Z,385
2017-08-31T08:23:09.417Z,380
2017-08-31T08:23:49.989Z,375
2017-08-31T08:24:30.564Z,370
2017-08-31T08:25:11.151Z,360
2017-08-31T08:25:51.744Z,360
2017-08-31T08:26:32.308Z,355
2017-08-31T08:27:12.886Z,350
2017-08-31T08:27:53.485Z,345
2017-08-31T08:28:34.079Z,340
2017-08-31T08:29:14.669Z,340
2017-08-31T08:29:55.234Z,335
2017-08-31T08:30:35.828Z,330
2017-08-31T08:31:16.395Z,320
2017-08-31T08:31:57.003Z,315
2017-08-31T08:32:37.584Z,315
2017-08-31T08:33:18.167Z,315
2017-08-31T08:33:58.753Z,310
2017-08-31T08:34:39.334Z,310
2017-08-31T08:35:19.926Z,300
2017-08-31T08:36:00.527Z,295
2017-08-31T08:36:41.104Z,290
2017-08-31T08:37:21.708Z,290
2017-08-31T08:38:02.313Z,290
2017-08-31T08:38:42.902Z,285
2017-08-31T08:39:23.492Z,285
2017-08-31T08:40:04.071Z,275
2017-08-31T08:40:44.714Z,265
2017-08-31T08:41:25.362Z,265
2017-08-31T08:42:05.971Z,260
2017-08-31T08:42:46.582Z,280
2017-08-31T08:43:27.154Z,275
2017-08-31T08:44:07.729Z,270
2017-08-31T08:44:48.341Z,270
2017-08-31T08:45:28.934Z,270
2017-08-31T08:46:09.574Z,270
2017-08-31T08:46:50.156Z,270
2017-08-31T08:47:30.741Z,265
2017-08-31T08:48:11.319Z,260
2017-08-31T08:48:51.907Z,255
2017-08-31T08:49:32.483Z,250
2017-08-31T08:50:13.059Z,250
2017-08-31T08:50:53.655Z,250
2017-08-31T08:51:34.277Z,250
2017-08-31T08:52:14.894Z,245
2017-08-31T08:52:55.492Z,245
2017-08-31T08:53:36.048Z,245
2017-08-31T08:54:16.629Z,205
2017-08-31T08:54:57.210Z,230
2017-08-31T08:55:37.801Z,245
2017-08-31T08:56:18.382Z,255
2017-08-31T08:56:58.962Z,250
2017-08-31T08:57:39.536Z,250
2017-08-31T08:58:20.139Z,250
2017-08-31T08:59:00.717Z,250
2017-08-31T08:59:41.289Z,255
2017-08-31T09:00:21.882Z,250
2017-08-31T09:01:02.477Z,210
2017-08-31T09:01:43.081Z,200
2017-08-31T09:02:23.692Z,190
2017-08-31T09:03:04.269Z,225
2017-08-31T09:03:44.841Z,225
2017-08-31T09:04:25.421Z,225
2017-08-31T09:05:05.999Z,230
2017-08-31T09:05:46.593Z,225
2017-08-31T09:06:27.173Z,225
2017-08-31T09:07:07.743Z,225
2017-08-31T09:07:48.353Z,225
2017-08-31T09:08:28.954Z,225
2017-08-31T09:09:09.555Z,220
2017-08-31T09:09:50.184Z,225
2017-08-31T09:10:30.775Z,225
2017-08-31T09:11:11.353Z,220
2017-08-31T09:11:51.932Z,215
2017-08-31T09:12:32.535Z,220
2017-08-31T09:13:13.115Z,225
2017-08-31T09:13:53.704Z,220
2017-08-31T09:14:34.292Z,220
2017-08-31T09:15:14.879Z,215
2017-08-31T09:15:55.462Z,215
2017-08-31T09:16:36.053Z,215
2017-08-31T09:17:16.662Z,215
2017-08-31T09:17:57.259Z,215
2017-08-31T09:18:37.838Z,210
2017-08-31T09:19:18.431Z,210
2017-08-31T09:19:59.000Z,210
2017-08-31T09:20:39.582Z,205
2017-08-31T09:21:20.199Z,205
2017-08-31T09:22:00.788Z,190
2017-08-31T09:22:41.365Z,205
2017-08-31T09:23:22.011Z,185
2017-08-31T09:24:02.585Z,185
2017-08-31T09:24:43.182Z,210
2017-08-31T09:25:23.761Z,215
2017-08-31T09:26:04.344Z,225
2017-08-31T09:26:44.934Z,225
2017-08-31T09:27:25.525Z,230
2017-08-31T09:28:06.103Z,230
2017-08-31T09:28:46.686Z,220
2017-08-31T09:29:27.252Z,220
2017-08-31T09:30:07.849Z,210
2017-08-31T09:30:48.417Z,215
2017-08-31T09:31:28.990Z,195
2017-08-31T09:32:09.562Z,210
2017-08-31T09:32:50.137Z,205
2017-08-31T09:33:30.761Z,205
2017-08-31T09:34:11.326Z,210
2017-08-31T09:34:51.934Z,220
2017-08-31T09:35:32.539Z,225
2017-08-31T09:36:13.177Z,220
2017-08-31T09:36:53.772Z,215
2017-08-31T09:37:34.357Z,200
2017-08-31T09:38:14.946Z,210
2017-08-31T09:38:55.524Z,205
2017-08-31T09:39:36.126Z,205